sensor_id;sensor_type;location;lat;lon;timestamp;P1;durP1;ratioP1;P2;durP2;ratioP2
50932;SDS011;36921;49.006;9.292;2023-09-19T00:00:58;0.73;;;0.40;;
50932;SDS011;36921;49.006;9.292;2023-09-19T00:03:24;0.60;;;0.47;;
50932;SDS011;36921;49.006;9.292;2023-09-19T00:05:50;1.20;;;0.40;;
50932;SDS011;36921;49.006;9.292;2023-09-19T00:08:15;2.25;;;0.60;;
50932;SDS011;36921;49.006;9.292;2023-09-19T00:10:41;0.80;;;0.50;;
50932;SDS011;36921;49.006;9.292;2023-09-19T00:13:08;1.95;;;0.65;;
50932;SDS011;36921;49.006;9.292;2023-09-19T00:15:38;0.90;;;0.60;;
50932;SDS011;36921;49.006;9.292;2023-09-19T00:18:06;1.90;;;0.73;;
50932;SDS011;36921;49.006;9.292;2023-09-19T00:20:32;2.70;;;0.50;;
50932;SDS011;36921;49.006;9.292;2023-09-19T00:23:00;0.85;;;0.47;;
50932;SDS011;36921;49.006;9.292;2023-09-19T00:25:30;0.80;;;0.50;;
50932;SDS011;36921;49.006;9.292;2023-09-19T00:27:57;2.63;;;0.65;;
50932;SDS011;36921;49.006;9.292;2023-09-19T00:30:23;1.20;;;0.57;;
50932;SDS011;36921;49.006;9.292;2023-09-19T00:32:49;1.50;;;0.63;;
50932;SDS011;36921;49.006;9.292;2023-09-19T00:35:19;1.23;;;0.90;;
50932;SDS011;36921;49.006;9.292;2023-09-19T00:37:44;1.88;;;0.77;;
50932;SDS011;36921;49.006;9.292;2023-09-19T00:40:10;3.22;;;0.88;;
50932;SDS011;36921;49.006;9.292;2023-09-19T00:42:40;3.42;;;0.82;;
50932;SDS011;36921;49.006;9.292;2023-09-19T00:45:10;1.45;;;0.57;;
50932;SDS011;36921;49.006;9.292;2023-09-19T00:47:37;2.33;;;0.50;;
50932;SDS011;36921;49.006;9.292;2023-09-19T00:50:04;3.35;;;0.60;;
50932;SDS011;36921;49.006;9.292;2023-09-19T00:52:33;3.13;;;0.80;;
50932;SDS011;36921;49.006;9.292;2023-09-19T00:55:08;4.32;;;0.70;;
50932;SDS011;36921;49.006;9.292;2023-09-19T00:57:35;2.05;;;0.70;;
50932;SDS011;36921;49.006;9.292;2023-09-19T01:00:03;1.98;;;0.73;;
50932;SDS011;36921;49.006;9.292;2023-09-19T01:02:33;2.95;;;0.60;;
50932;SDS011;36921;49.006;9.292;2023-09-19T01:05:00;1.50;;;0.55;;
50932;SDS011;36921;49.006;9.292;2023-09-19T01:07:28;2.80;;;0.70;;
50932;SDS011;36921;49.006;9.292;2023-09-19T01:09:56;0.90;;;0.60;;
50932;SDS011;36921;49.006;9.292;2023-09-19T01:32:15;5.00;;;0.73;;
50932;SDS011;36921;49.006;9.292;2023-09-19T01:34:56;1.65;;;0.70;;
50932;SDS011;36921;49.006;9.292;2023-09-19T01:37:28;2.30;;;0.60;;
50932;SDS011;36921;49.006;9.292;2023-09-19T01:39:59;1.58;;;0.63;;
50932;SDS011;36921;49.006;9.292;2023-09-19T01:45:13;2.67;;;0.77;;
50932;SDS011;36921;49.006;9.292;2023-09-19T01:47:56;2.70;;;0.95;;
50932;SDS011;36921;49.006;9.292;2023-09-19T01:50:32;3.35;;;0.70;;
50932;SDS011;36921;49.006;9.292;2023-09-19T01:56:03;2.08;;;0.70;;
50932;SDS011;36921;49.006;9.292;2023-09-19T02:00:58;2.55;;;0.70;;
50932;SDS011;36921;49.006;9.292;2023-09-19T02:03:25;1.45;;;0.57;;
50932;SDS011;36921;49.006;9.292;2023-09-19T02:05:52;1.85;;;0.70;;
50932;SDS011;36921;49.006;9.292;2023-09-19T02:08:18;2.03;;;0.80;;
50932;SDS011;36921;49.006;9.292;2023-09-19T02:10:45;2.65;;;0.80;;
50932;SDS011;36921;49.006;9.292;2023-09-19T02:13:17;0.90;;;0.40;;
50932;SDS011;36921;49.006;9.292;2023-09-19T02:15:44;1.27;;;0.60;;
50932;SDS011;36921;49.006;9.292;2023-09-19T02:18:10;3.60;;;0.70;;
50932;SDS011;36921;49.006;9.292;2023-09-19T02:23:04;2.28;;;0.60;;
50932;SDS011;36921;49.006;9.292;2023-09-19T02:25:31;2.58;;;0.63;;
50932;SDS011;36921;49.006;9.292;2023-09-19T02:27:57;2.58;;;0.50;;
50932;SDS011;36921;49.006;9.292;2023-09-19T02:30:23;2.13;;;0.47;;
50932;SDS011;36921;49.006;9.292;2023-09-19T02:32:50;1.63;;;0.88;;
50932;SDS011;36921;49.006;9.292;2023-09-19T02:35:15;3.13;;;0.60;;
50932;SDS011;36921;49.006;9.292;2023-09-19T02:37:41;5.15;;;0.77;;
50932;SDS011;36921;49.006;9.292;2023-09-19T02:40:06;1.55;;;0.77;;
50932;SDS011;36921;49.006;9.292;2023-09-19T02:42:43;1.30;;;0.70;;
50932;SDS011;36921;49.006;9.292;2023-09-19T02:45:13;2.67;;;0.80;;
50932;SDS011;36921;49.006;9.292;2023-09-19T02:47:42;2.83;;;0.70;;
50932;SDS011;36921;49.006;9.292;2023-09-19T02:50:08;2.25;;;0.70;;
50932;SDS011;36921;49.006;9.292;2023-09-19T02:52:36;1.83;;;0.80;;
50932;SDS011;36921;49.006;9.292;2023-09-19T02:55:02;4.38;;;0.88;;
50932;SDS011;36921;49.006;9.292;2023-09-19T02:57:30;1.13;;;0.60;;
50932;SDS011;36921;49.006;9.292;2023-09-19T02:59:58;1.60;;;0.70;;
50932;SDS011;36921;49.006;9.292;2023-09-19T03:02:24;2.15;;;0.80;;
50932;SDS011;36921;49.006;9.292;2023-09-19T03:04:49;2.75;;;0.63;;
50932;SDS011;36921;49.006;9.292;2023-09-19T03:07:16;2.05;;;0.60;;
50932;SDS011;36921;49.006;9.292;2023-09-19T03:09:42;1.63;;;0.73;;
50932;SDS011;36921;49.006;9.292;2023-09-19T03:12:08;3.90;;;0.85;;
50932;SDS011;36921;49.006;9.292;2023-09-19T03:14:33;1.77;;;0.82;;
50932;SDS011;36921;49.006;9.292;2023-09-19T03:17:00;1.52;;;0.98;;
50932;SDS011;36921;49.006;9.292;2023-09-19T03:19:26;1.92;;;0.88;;
50932;SDS011;36921;49.006;9.292;2023-09-19T03:21:51;5.32;;;0.70;;
50932;SDS011;36921;49.006;9.292;2023-09-19T03:24:18;1.23;;;0.70;;
50932;SDS011;36921;49.006;9.292;2023-09-19T03:26:44;1.30;;;0.70;;
50932;SDS011;36921;49.006;9.292;2023-09-19T03:29:10;2.00;;;0.77;;
50932;SDS011;36921;49.006;9.292;2023-09-19T03:31:35;0.90;;;0.40;;
50932;SDS011;36921;49.006;9.292;2023-09-19T03:34:04;2.90;;;0.93;;
50932;SDS011;36921;49.006;9.292;2023-09-19T03:36:29;0.80;;;0.52;;
50932;SDS011;36921;49.006;9.292;2023-09-19T03:38:55;3.35;;;0.70;;
50932;SDS011;36921;49.006;9.292;2023-09-19T03:41:20;2.05;;;0.73;;
50932;SDS011;36921;49.006;9.292;2023-09-19T03:43:46;3.67;;;0.80;;
50932;SDS011;36921;49.006;9.292;2023-09-19T03:46:11;2.53;;;1.00;;
50932;SDS011;36921;49.006;9.292;2023-09-19T03:48:38;2.80;;;0.70;;
50932;SDS011;36921;49.006;9.292;2023-09-19T03:51:03;1.98;;;0.65;;
50932;SDS011;36921;49.006;9.292;2023-09-19T03:53:28;3.72;;;0.68;;
50932;SDS011;36921;49.006;9.292;2023-09-19T03:55:54;3.45;;;0.60;;
50932;SDS011;36921;49.006;9.292;2023-09-19T03:58:20;1.85;;;0.70;;
50932;SDS011;36921;49.006;9.292;2023-09-19T04:00:45;1.75;;;0.65;;
50932;SDS011;36921;49.006;9.292;2023-09-19T04:03:11;1.02;;;0.63;;
50932;SDS011;36921;49.006;9.292;2023-09-19T04:05:44;3.10;;;0.82;;
50932;SDS011;36921;49.006;9.292;2023-09-19T04:08:09;2.45;;;0.60;;
50932;SDS011;36921;49.006;9.292;2023-09-19T04:10:34;1.00;;;0.70;;
50932;SDS011;36921;49.006;9.292;2023-09-19T04:13:00;2.03;;;0.60;;
50932;SDS011;36921;49.006;9.292;2023-09-19T04:15:26;2.88;;;0.60;;
50932;SDS011;36921;49.006;9.292;2023-09-19T04:17:51;1.27;;;0.70;;
50932;SDS011;36921;49.006;9.292;2023-09-19T04:20:17;1.30;;;0.70;;
50932;SDS011;36921;49.006;9.292;2023-09-19T04:22:44;5.57;;;0.70;;
50932;SDS011;36921;49.006;9.292;2023-09-19T04:25:09;3.47;;;0.85;;
50932;SDS011;36921;49.006;9.292;2023-09-19T04:27:35;1.27;;;0.80;;
50932;SDS011;36921;49.006;9.292;2023-09-19T04:30:00;1.77;;;0.90;;
50932;SDS011;36921;49.006;9.292;2023-09-19T04:32:28;1.42;;;0.75;;
50932;SDS011;36921;49.006;9.292;2023-09-19T04:34:54;2.47;;;0.93;;
50932;SDS011;36921;49.006;9.292;2023-09-19T04:37:24;1.67;;;0.93;;
50932;SDS011;36921;49.006;9.292;2023-09-19T04:39:50;2.22;;;1.13;;
50932;SDS011;36921;49.006;9.292;2023-09-19T04:42:15;2.45;;;1.00;;
50932;SDS011;36921;49.006;9.292;2023-09-19T04:44:40;1.20;;;0.70;;
50932;SDS011;36921;49.006;9.292;2023-09-19T04:47:05;3.35;;;0.85;;
50932;SDS011;36921;49.006;9.292;2023-09-19T04:49:31;2.58;;;0.88;;
50932;SDS011;36921;49.006;9.292;2023-09-19T04:51:56;1.58;;;0.95;;
50932;SDS011;36921;49.006;9.292;2023-09-19T04:54:21;3.92;;;0.90;;
50932;SDS011;36921;49.006;9.292;2023-09-19T04:56:47;1.77;;;1.08;;
50932;SDS011;36921;49.006;9.292;2023-09-19T04:59:13;2.25;;;1.10;;
50932;SDS011;36921;49.006;9.292;2023-09-19T05:01:39;2.47;;;0.95;;
50932;SDS011;36921;49.006;9.292;2023-09-19T05:04:05;4.00;;;1.10;;
50932;SDS011;36921;49.006;9.292;2023-09-19T05:06:30;4.40;;;1.10;;
50932;SDS011;36921;49.006;9.292;2023-09-19T05:08:56;2.22;;;1.00;;
50932;SDS011;36921;49.006;9.292;2023-09-19T05:11:21;3.78;;;1.00;;
50932;SDS011;36921;49.006;9.292;2023-09-19T05:13:47;5.97;;;1.20;;
50932;SDS011;36921;49.006;9.292;2023-09-19T05:16:13;4.32;;;1.30;;
50932;SDS011;36921;49.006;9.292;2023-09-19T05:18:38;2.13;;;1.27;;
50932;SDS011;36921;49.006;9.292;2023-09-19T05:21:04;3.08;;;1.33;;
50932;SDS011;36921;49.006;9.292;2023-09-19T05:23:29;1.67;;;1.38;;
50932;SDS011;36921;49.006;9.292;2023-09-19T05:25:56;2.85;;;1.50;;
50932;SDS011;36921;49.006;9.292;2023-09-19T05:28:24;2.35;;;1.27;;
50932;SDS011;36921;49.006;9.292;2023-09-19T05:30:50;3.30;;;1.52;;
50932;SDS011;36921;49.006;9.292;2023-09-19T05:33:16;2.60;;;1.58;;
50932;SDS011;36921;49.006;9.292;2023-09-19T05:35:43;3.08;;;1.30;;
50932;SDS011;36921;49.006;9.292;2023-09-19T05:38:08;4.65;;;1.70;;
50932;SDS011;36921;49.006;9.292;2023-09-19T05:40:34;2.15;;;1.20;;
50932;SDS011;36921;49.006;9.292;2023-09-19T05:43:00;5.57;;;1.35;;
50932;SDS011;36921;49.006;9.292;2023-09-19T05:45:25;4.00;;;1.38;;
50932;SDS011;36921;49.006;9.292;2023-09-19T05:47:51;4.57;;;1.23;;
50932;SDS011;36921;49.006;9.292;2023-09-19T05:50:20;1.70;;;1.00;;
50932;SDS011;36921;49.006;9.292;2023-09-19T05:52:52;4.15;;;1.73;;
50932;SDS011;36921;49.006;9.292;2023-09-19T05:55:19;4.07;;;1.27;;
50932;SDS011;36921;49.006;9.292;2023-09-19T05:57:49;5.40;;;1.10;;
50932;SDS011;36921;49.006;9.292;2023-09-19T06:00:17;3.28;;;1.30;;
50932;SDS011;36921;49.006;9.292;2023-09-19T06:02:54;3.97;;;1.30;;
50932;SDS011;36921;49.006;9.292;2023-09-19T06:05:21;3.80;;;1.40;;
50932;SDS011;36921;49.006;9.292;2023-09-19T06:07:48;4.93;;;1.50;;
50932;SDS011;36921;49.006;9.292;2023-09-19T06:10:13;3.92;;;1.45;;
50932;SDS011;36921;49.006;9.292;2023-09-19T06:12:40;2.85;;;1.50;;
50932;SDS011;36921;49.006;9.292;2023-09-19T06:15:08;2.00;;;1.20;;
50932;SDS011;36921;49.006;9.292;2023-09-19T06:17:37;2.65;;;1.58;;
50932;SDS011;36921;49.006;9.292;2023-09-19T06:20:05;4.10;;;1.30;;
50932;SDS011;36921;49.006;9.292;2023-09-19T06:22:44;2.83;;;1.52;;
50932;SDS011;36921;49.006;9.292;2023-09-19T06:25:10;3.35;;;1.52;;
50932;SDS011;36921;49.006;9.292;2023-09-19T06:27:40;4.53;;;1.77;;
50932;SDS011;36921;49.006;9.292;2023-09-19T06:30:09;5.82;;;1.40;;
50932;SDS011;36921;49.006;9.292;2023-09-19T06:32:36;3.30;;;1.10;;
50932;SDS011;36921;49.006;9.292;2023-09-19T06:35:02;2.13;;;1.15;;
50932;SDS011;36921;49.006;9.292;2023-09-19T06:37:32;4.43;;;1.42;;
50932;SDS011;36921;49.006;9.292;2023-09-19T06:39:59;2.28;;;1.00;;
50932;SDS011;36921;49.006;9.292;2023-09-19T06:42:24;3.95;;;0.90;;
50932;SDS011;36921;49.006;9.292;2023-09-19T06:44:50;2.50;;;0.95;;
50932;SDS011;36921;49.006;9.292;2023-09-19T06:47:15;6.68;;;1.10;;
50932;SDS011;36921;49.006;9.292;2023-09-19T06:49:41;6.22;;;0.90;;
50932;SDS011;36921;49.006;9.292;2023-09-19T06:52:08;1.35;;;0.70;;
50932;SDS011;36921;49.006;9.292;2023-09-19T06:54:34;6.43;;;0.85;;
50932;SDS011;36921;49.006;9.292;2023-09-19T06:57:01;2.83;;;1.00;;
50932;SDS011;36921;49.006;9.292;2023-09-19T06:59:26;2.55;;;0.77;;
50932;SDS011;36921;49.006;9.292;2023-09-19T07:01:51;2.35;;;0.77;;
50932;SDS011;36921;49.006;9.292;2023-09-19T07:04:18;1.77;;;0.70;;
50932;SDS011;36921;49.006;9.292;2023-09-19T07:06:44;1.63;;;0.90;;
50932;SDS011;36921;49.006;9.292;2023-09-19T07:09:14;3.60;;;1.17;;
50932;SDS011;36921;49.006;9.292;2023-09-19T07:11:40;2.80;;;0.90;;
50932;SDS011;36921;49.006;9.292;2023-09-19T07:14:05;3.00;;;0.98;;
50932;SDS011;36921;49.006;9.292;2023-09-19T07:16:30;4.65;;;0.95;;
50932;SDS011;36921;49.006;9.292;2023-09-19T07:18:56;2.60;;;0.73;;
50932;SDS011;36921;49.006;9.292;2023-09-19T07:21:22;5.13;;;1.27;;
50932;SDS011;36921;49.006;9.292;2023-09-19T07:23:48;4.55;;;1.10;;
50932;SDS011;36921;49.006;9.292;2023-09-19T07:26:14;5.03;;;1.10;;
50932;SDS011;36921;49.006;9.292;2023-09-19T07:28:40;5.85;;;1.10;;
50932;SDS011;36921;49.006;9.292;2023-09-19T07:31:05;3.03;;;1.00;;
50932;SDS011;36921;49.006;9.292;2023-09-19T07:33:32;6.32;;;1.05;;
50932;SDS011;36921;49.006;9.292;2023-09-19T07:35:57;3.88;;;0.80;;
50932;SDS011;36921;49.006;9.292;2023-09-19T07:38:23;4.35;;;1.52;;
50932;SDS011;36921;49.006;9.292;2023-09-19T07:40:49;3.42;;;0.80;;
50932;SDS011;36921;49.006;9.292;2023-09-19T07:43:15;3.75;;;0.60;;
50932;SDS011;36921;49.006;9.292;2023-09-19T07:45:40;3.63;;;0.70;;
50932;SDS011;36921;49.006;9.292;2023-09-19T07:48:05;3.15;;;0.70;;
50932;SDS011;36921;49.006;9.292;2023-09-19T07:50:39;3.80;;;0.52;;
50932;SDS011;36921;49.006;9.292;2023-09-19T07:53:05;1.25;;;0.50;;
50932;SDS011;36921;49.006;9.292;2023-09-19T07:55:31;0.88;;;0.40;;
50932;SDS011;36921;49.006;9.292;2023-09-19T08:00:26;4.55;;;0.68;;
50932;SDS011;36921;49.006;9.292;2023-09-19T08:02:51;4.13;;;0.70;;
50932;SDS011;36921;49.006;9.292;2023-09-19T08:05:17;0.98;;;0.50;;
50932;SDS011;36921;49.006;9.292;2023-09-19T08:07:44;1.27;;;0.57;;
50932;SDS011;36921;49.006;9.292;2023-09-19T08:10:13;3.58;;;0.70;;
50932;SDS011;36921;49.006;9.292;2023-09-19T08:12:41;4.78;;;0.63;;
50932;SDS011;36921;49.006;9.292;2023-09-19T08:15:16;2.88;;;0.57;;
50932;SDS011;36921;49.006;9.292;2023-09-19T08:17:46;1.90;;;0.47;;
50932;SDS011;36921;49.006;9.292;2023-09-19T08:20:12;1.90;;;0.50;;
50932;SDS011;36921;49.006;9.292;2023-09-19T08:22:51;3.13;;;0.85;;
50932;SDS011;36921;49.006;9.292;2023-09-19T08:25:19;2.45;;;0.50;;
50932;SDS011;36921;49.006;9.292;2023-09-19T08:27:45;4.28;;;0.60;;
50932;SDS011;36921;49.006;9.292;2023-09-19T08:30:14;2.58;;;0.60;;
50932;SDS011;36921;49.006;9.292;2023-09-19T08:32:40;1.67;;;0.40;;
50932;SDS011;36921;49.006;9.292;2023-09-19T08:35:07;3.53;;;0.60;;
50932;SDS011;36921;49.006;9.292;2023-09-19T08:37:34;1.30;;;0.55;;
50932;SDS011;36921;49.006;9.292;2023-09-19T08:39:59;2.25;;;0.63;;
50932;SDS011;36921;49.006;9.292;2023-09-19T08:42:25;2.03;;;0.73;;
50932;SDS011;36921;49.006;9.292;2023-09-19T08:44:50;2.05;;;0.65;;
50932;SDS011;36921;49.006;9.292;2023-09-19T08:47:16;1.92;;;0.50;;
50932;SDS011;36921;49.006;9.292;2023-09-19T08:49:57;1.60;;;0.65;;
50932;SDS011;36921;49.006;9.292;2023-09-19T08:52:41;1.60;;;0.47;;
50932;SDS011;36921;49.006;9.292;2023-09-19T08:55:07;4.07;;;0.60;;
50932;SDS011;36921;49.006;9.292;2023-09-19T08:57:36;3.03;;;0.52;;
50932;SDS011;36921;49.006;9.292;2023-09-19T09:00:06;3.30;;;0.57;;
50932;SDS011;36921;49.006;9.292;2023-09-19T09:02:38;3.60;;;0.70;;
50932;SDS011;36921;49.006;9.292;2023-09-19T09:05:10;0.50;;;0.35;;
50932;SDS011;36921;49.006;9.292;2023-09-19T09:07:36;1.00;;;0.43;;
50932;SDS011;36921;49.006;9.292;2023-09-19T09:10:02;2.17;;;0.60;;
50932;SDS011;36921;49.006;9.292;2023-09-19T09:12:29;1.20;;;0.63;;
50932;SDS011;36921;49.006;9.292;2023-09-19T09:14:55;2.67;;;0.60;;
50932;SDS011;36921;49.006;9.292;2023-09-19T09:17:22;2.08;;;0.60;;
50932;SDS011;36921;49.006;9.292;2023-09-19T09:19:47;1.17;;;0.40;;
50932;SDS011;36921;49.006;9.292;2023-09-19T09:22:13;1.15;;;0.50;;
50932;SDS011;36921;49.006;9.292;2023-09-19T09:24:51;3.58;;;0.70;;
50932;SDS011;36921;49.006;9.292;2023-09-19T09:27:19;1.95;;;0.57;;
50932;SDS011;36921;49.006;9.292;2023-09-19T09:29:46;2.83;;;0.70;;
50932;SDS011;36921;49.006;9.292;2023-09-19T09:34:57;3.47;;;1.15;;
50932;SDS011;36921;49.006;9.292;2023-09-19T09:37:24;3.13;;;0.52;;
50932;SDS011;36921;49.006;9.292;2023-09-19T09:39:55;5.05;;;0.70;;
50932;SDS011;36921;49.006;9.292;2023-09-19T09:42:36;1.10;;;0.63;;
50932;SDS011;36921;49.006;9.292;2023-09-19T09:45:14;2.88;;;0.45;;
50932;SDS011;36921;49.006;9.292;2023-09-19T09:47:44;4.53;;;0.70;;
50932;SDS011;36921;49.006;9.292;2023-09-19T09:50:23;1.85;;;0.55;;
50932;SDS011;36921;49.006;9.292;2023-09-19T09:53:22;6.10;;;0.60;;
50932;SDS011;36921;49.006;9.292;2023-09-19T09:56:02;5.22;;;0.70;;
50932;SDS011;36921;49.006;9.292;2023-09-19T09:58:36;2.08;;;0.43;;
50932;SDS011;36921;49.006;9.292;2023-09-19T10:01:05;1.00;;;0.60;;
50932;SDS011;36921;49.006;9.292;2023-09-19T10:03:37;1.98;;;0.40;;
50932;SDS011;36921;49.006;9.292;2023-09-19T10:06:09;2.83;;;1.08;;
50932;SDS011;36921;49.006;9.292;2023-09-19T10:09:02;2.15;;;0.40;;
50932;SDS011;36921;49.006;9.292;2023-09-19T10:12:00;4.45;;;0.70;;
50932;SDS011;36921;49.006;9.292;2023-09-19T10:14:30;2.13;;;0.63;;
50932;SDS011;36921;49.006;9.292;2023-09-19T10:16:58;2.38;;;0.70;;
50932;SDS011;36921;49.006;9.292;2023-09-19T10:19:45;2.47;;;0.68;;
50932;SDS011;36921;49.006;9.292;2023-09-19T10:22:17;1.60;;;0.50;;
50932;SDS011;36921;49.006;9.292;2023-09-19T10:24:48;1.92;;;0.70;;
50932;SDS011;36921;49.006;9.292;2023-09-19T10:27:17;1.27;;;0.70;;
50932;SDS011;36921;49.006;9.292;2023-09-19T10:29:44;5.82;;;0.63;;
50932;SDS011;36921;49.006;9.292;2023-09-19T10:32:14;2.00;;;0.52;;
50932;SDS011;36921;49.006;9.292;2023-09-19T10:34:44;2.05;;;0.52;;
50932;SDS011;36921;49.006;9.292;2023-09-19T10:37:14;2.50;;;0.60;;
50932;SDS011;36921;49.006;9.292;2023-09-19T10:39:41;1.50;;;0.73;;
50932;SDS011;36921;49.006;9.292;2023-09-19T10:42:11;3.00;;;0.70;;
50932;SDS011;36921;49.006;9.292;2023-09-19T10:44:42;1.65;;;0.70;;
50932;SDS011;36921;49.006;9.292;2023-09-19T10:47:09;1.50;;;0.60;;
50932;SDS011;36921;49.006;9.292;2023-09-19T10:49:34;1.98;;;0.90;;
50932;SDS011;36921;49.006;9.292;2023-09-19T10:51:59;1.33;;;0.60;;
50932;SDS011;36921;49.006;9.292;2023-09-19T10:54:27;1.60;;;0.60;;
50932;SDS011;36921;49.006;9.292;2023-09-19T10:56:57;1.38;;;0.68;;
50932;SDS011;36921;49.006;9.292;2023-09-19T10:59:24;2.15;;;0.75;;
50932;SDS011;36921;49.006;9.292;2023-09-19T11:04:35;2.80;;;0.70;;
50932;SDS011;36921;49.006;9.292;2023-09-19T11:07:02;2.05;;;0.80;;
50932;SDS011;36921;49.006;9.292;2023-09-19T11:12:11;2.95;;;1.08;;
50932;SDS011;36921;49.006;9.292;2023-09-19T11:14:38;1.63;;;0.70;;
50932;SDS011;36921;49.006;9.292;2023-09-19T11:30:50;2.90;;;0.60;;
50932;SDS011;36921;49.006;9.292;2023-09-19T11:33:29;1.98;;;0.70;;
50932;SDS011;36921;49.006;9.292;2023-09-19T11:36:08;2.25;;;0.52;;
50932;SDS011;36921;49.006;9.292;2023-09-19T11:38:57;2.63;;;0.70;;
50932;SDS011;36921;49.006;9.292;2023-09-19T11:46:24;1.23;;;0.60;;
50932;SDS011;36921;49.006;9.292;2023-09-19T11:48:50;0.73;;;0.50;;
50932;SDS011;36921;49.006;9.292;2023-09-19T11:51:20;2.45;;;0.60;;
50932;SDS011;36921;49.006;9.292;2023-09-19T11:53:49;1.02;;;0.40;;
50932;SDS011;36921;49.006;9.292;2023-09-19T11:56:16;2.83;;;0.65;;
50932;SDS011;36921;49.006;9.292;2023-09-19T11:58:45;1.73;;;0.70;;
50932;SDS011;36921;49.006;9.292;2023-09-19T12:03:46;2.22;;;0.80;;
50932;SDS011;36921;49.006;9.292;2023-09-19T12:06:15;3.63;;;0.70;;
50932;SDS011;36921;49.006;9.292;2023-09-19T12:08:41;1.85;;;0.70;;
50932;SDS011;36921;49.006;9.292;2023-09-19T12:11:11;2.63;;;0.68;;
50932;SDS011;36921;49.006;9.292;2023-09-19T12:13:41;4.10;;;0.90;;
50932;SDS011;36921;49.006;9.292;2023-09-19T12:16:15;3.95;;;0.95;;
50932;SDS011;36921;49.006;9.292;2023-09-19T12:18:42;2.83;;;0.70;;
50932;SDS011;36921;49.006;9.292;2023-09-19T12:21:26;3.20;;;0.70;;
50932;SDS011;36921;49.006;9.292;2023-09-19T12:26:44;1.45;;;0.60;;
50932;SDS011;36921;49.006;9.292;2023-09-19T12:29:13;2.75;;;0.70;;
50932;SDS011;36921;49.006;9.292;2023-09-19T12:31:55;2.13;;;0.80;;
50932;SDS011;36921;49.006;9.292;2023-09-19T12:34:25;1.75;;;0.60;;
50932;SDS011;36921;49.006;9.292;2023-09-19T12:39:40;1.73;;;0.70;;
50932;SDS011;36921;49.006;9.292;2023-09-19T12:42:13;3.47;;;0.70;;
50932;SDS011;36921;49.006;9.292;2023-09-19T12:44:43;1.33;;;0.73;;
50932;SDS011;36921;49.006;9.292;2023-09-19T12:47:15;2.10;;;0.75;;
50932;SDS011;36921;49.006;9.292;2023-09-19T12:52:43;1.67;;;0.65;;
50932;SDS011;36921;49.006;9.292;2023-09-19T12:55:22;1.55;;;0.65;;
50932;SDS011;36921;49.006;9.292;2023-09-19T12:58:34;2.22;;;0.60;;
50932;SDS011;36921;49.006;9.292;2023-09-19T13:00:43;3.70;;;0.80;;
50932;SDS011;36921;49.006;9.292;2023-09-19T13:05:52;2.25;;;0.70;;
50932;SDS011;36921;49.006;9.292;2023-09-19T13:08:26;1.73;;;0.68;;
50932;SDS011;36921;49.006;9.292;2023-09-19T13:10:59;1.50;;;0.80;;
50932;SDS011;36921;49.006;9.292;2023-09-19T13:13:41;2.58;;;0.77;;
50932;SDS011;36921;49.006;9.292;2023-09-19T13:16:09;3.28;;;0.88;;
50932;SDS011;36921;49.006;9.292;2023-09-19T13:18:42;1.13;;;0.50;;
50932;SDS011;36921;49.006;9.292;2023-09-19T13:21:29;1.60;;;0.60;;
50932;SDS011;36921;49.006;9.292;2023-09-19T13:24:24;3.28;;;0.70;;
50932;SDS011;36921;49.006;9.292;2023-09-19T13:26:56;1.38;;;0.70;;
50932;SDS011;36921;49.006;9.292;2023-09-19T13:29:22;1.10;;;0.50;;
50932;SDS011;36921;49.006;9.292;2023-09-19T13:31:48;2.78;;;0.73;;
50932;SDS011;36921;49.006;9.292;2023-09-19T13:34:15;3.88;;;0.70;;
50932;SDS011;36921;49.006;9.292;2023-09-19T13:36:42;1.02;;;0.57;;
50932;SDS011;36921;49.006;9.292;2023-09-19T13:39:08;1.17;;;0.57;;
50932;SDS011;36921;49.006;9.292;2023-09-19T13:41:38;2.08;;;0.73;;
50932;SDS011;36921;49.006;9.292;2023-09-19T13:44:03;1.88;;;0.68;;
50932;SDS011;36921;49.006;9.292;2023-09-19T13:46:29;2.10;;;0.70;;
50932;SDS011;36921;49.006;9.292;2023-09-19T13:48:58;3.03;;;0.57;;
50932;SDS011;36921;49.006;9.292;2023-09-19T13:51:25;4.53;;;0.73;;
50932;SDS011;36921;49.006;9.292;2023-09-19T13:53:51;3.67;;;0.80;;
50932;SDS011;36921;49.006;9.292;2023-09-19T13:56:16;1.48;;;0.68;;
50932;SDS011;36921;49.006;9.292;2023-09-19T13:58:42;2.30;;;0.73;;
50932;SDS011;36921;49.006;9.292;2023-09-19T14:01:07;2.10;;;0.65;;
50932;SDS011;36921;49.006;9.292;2023-09-19T14:03:37;1.02;;;0.57;;
50932;SDS011;36921;49.006;9.292;2023-09-19T14:06:04;1.60;;;0.60;;
50932;SDS011;36921;49.006;9.292;2023-09-19T14:08:29;3.17;;;0.70;;
50932;SDS011;36921;49.006;9.292;2023-09-19T14:10:54;2.75;;;0.77;;
50932;SDS011;36921;49.006;9.292;2023-09-19T14:13:20;3.33;;;0.60;;
50932;SDS011;36921;49.006;9.292;2023-09-19T14:15:45;2.67;;;0.73;;
50932;SDS011;36921;49.006;9.292;2023-09-19T14:18:11;2.80;;;0.70;;
50932;SDS011;36921;49.006;9.292;2023-09-19T14:20:37;2.08;;;0.70;;
50932;SDS011;36921;49.006;9.292;2023-09-19T14:23:06;0.80;;;0.50;;
50932;SDS011;36921;49.006;9.292;2023-09-19T14:25:34;1.80;;;0.80;;
50932;SDS011;36921;49.006;9.292;2023-09-19T14:27:59;1.90;;;0.73;;
50932;SDS011;36921;49.006;9.292;2023-09-19T14:30:25;1.60;;;0.60;;
50932;SDS011;36921;49.006;9.292;2023-09-19T14:32:51;2.92;;;0.73;;
50932;SDS011;36921;49.006;9.292;2023-09-19T14:35:16;2.25;;;0.80;;
50932;SDS011;36921;49.006;9.292;2023-09-19T14:37:42;1.65;;;0.50;;
50932;SDS011;36921;49.006;9.292;2023-09-19T14:40:08;2.83;;;0.70;;
50932;SDS011;36921;49.006;9.292;2023-09-19T14:42:35;2.65;;;0.73;;
50932;SDS011;36921;49.006;9.292;2023-09-19T14:47:29;1.33;;;0.57;;
50932;SDS011;36921;49.006;9.292;2023-09-19T14:49:56;4.30;;;0.40;;
50932;SDS011;36921;49.006;9.292;2023-09-19T14:52:23;2.72;;;0.60;;
50932;SDS011;36921;49.006;9.292;2023-09-19T14:54:51;3.95;;;0.60;;
50932;SDS011;36921;49.006;9.292;2023-09-19T14:57:16;1.77;;;0.60;;
50932;SDS011;36921;49.006;9.292;2023-09-19T14:59:41;1.90;;;0.80;;
50932;SDS011;36921;49.006;9.292;2023-09-19T15:02:07;3.10;;;0.95;;
50932;SDS011;36921;49.006;9.292;2023-09-19T15:04:32;3.38;;;0.80;;
50932;SDS011;36921;49.006;9.292;2023-09-19T15:07:02;1.15;;;0.65;;
50932;SDS011;36921;49.006;9.292;2023-09-19T15:09:27;2.53;;;0.82;;
50932;SDS011;36921;49.006;9.292;2023-09-19T15:11:54;1.45;;;0.80;;
50932;SDS011;36921;49.006;9.292;2023-09-19T15:14:20;2.03;;;0.60;;
50932;SDS011;36921;49.006;9.292;2023-09-19T15:16:50;1.63;;;0.60;;
50932;SDS011;36921;49.006;9.292;2023-09-19T15:19:15;1.70;;;0.70;;
50932;SDS011;36921;49.006;9.292;2023-09-19T15:21:42;4.25;;;0.73;;
50932;SDS011;36921;49.006;9.292;2023-09-19T15:24:08;3.17;;;0.70;;
50932;SDS011;36921;49.006;9.292;2023-09-19T15:26:35;1.13;;;0.50;;
50932;SDS011;36921;49.006;9.292;2023-09-19T15:29:04;3.40;;;0.60;;
50932;SDS011;36921;49.006;9.292;2023-09-19T15:31:30;1.27;;;0.40;;
50932;SDS011;36921;49.006;9.292;2023-09-19T15:33:55;1.85;;;0.60;;
50932;SDS011;36921;49.006;9.292;2023-09-19T15:36:20;2.70;;;0.63;;
50932;SDS011;36921;49.006;9.292;2023-09-19T15:41:21;1.05;;;0.43;;
50932;SDS011;36921;49.006;9.292;2023-09-19T15:43:47;4.70;;;0.50;;
50932;SDS011;36921;49.006;9.292;2023-09-19T15:46:12;3.80;;;0.63;;
50932;SDS011;36921;49.006;9.292;2023-09-19T15:48:38;1.27;;;0.60;;
50932;SDS011;36921;49.006;9.292;2023-09-19T15:51:04;1.83;;;0.80;;
50932;SDS011;36921;49.006;9.292;2023-09-19T15:53:41;1.17;;;0.55;;
50932;SDS011;36921;49.006;9.292;2023-09-19T15:56:09;2.17;;;0.57;;
50932;SDS011;36921;49.006;9.292;2023-09-19T15:58:35;4.45;;;0.52;;
50932;SDS011;36921;49.006;9.292;2023-09-19T16:01:07;2.45;;;0.70;;
50932;SDS011;36921;49.006;9.292;2023-09-19T16:03:37;1.60;;;0.50;;
50932;SDS011;36921;49.006;9.292;2023-09-19T16:06:13;0.90;;;0.50;;
50932;SDS011;36921;49.006;9.292;2023-09-19T16:08:43;2.78;;;0.73;;
50932;SDS011;36921;49.006;9.292;2023-09-19T16:11:11;1.30;;;0.73;;
50932;SDS011;36921;49.006;9.292;2023-09-19T16:13:37;1.67;;;0.50;;